Loveland, Colorado
Current Conditions -  °F | °C
As of 11:35 AM on Wednesday 26 Nov 2014 (Local Time) from KFNL Reporting Station
Clear Clear  
Wind Chill: 30°   Ceiling: Unl
Heat Index: 36°   Visibility: 10mi
Dew Point: 21°   Wind: 7mph
Humidity: 56%   Direction: 160°SSE
Pressure: 30.21"   Gusts: NA
Location:  40.39°N, 105.07°W
Report Text: KFNL 261835Z AUTO 16006KT 10SM CLR 02/M06 A3021 RMK AO1
Loading
Personal Weather Stations






























Interactive Weather Map New forecast layout! Learn more

10-Day Weather Forecast

Advertisements
Track Severe Weather on mobile